Time;durP1;ratioP1;P1;durP2;ratioP2;P2;SDS_P1;SDS_P2;PMS_P1;PMS_P2;Temp;Humidity;BMP_temperature;BMP_pressure;BME280_temperature;BME280_humidity;BME280_pressure;Samples;Min_cycle;Max_cycle;Signal;HPM_P1;HPM_P2
2024/01/14 00:01:55;;;;;;;48.30;21.57;;;-2.50;99.90;;;;;;5129392;28;20181;-72
2024/01/14 00:04:21;;;;;;;48.05;20.98;;;-2.60;99.90;;;;;;5110650;28;20477;-72
2024/01/14 00:06:47;;;;;;;46.60;22.13;;;-2.70;99.90;;;;;;5129073;28;20553;-72
2024/01/14 00:09:13;;;;;;;48.97;21.23;;;-2.80;99.90;;;;;;5128966;28;20431;-73
2024/01/14 00:11:41;;;;;;;48.00;20.20;;;-2.70;99.90;;;;;;5110756;28;20177;-72
2024/01/14 00:14:07;;;;;;;43.28;20.98;;;-2.60;99.90;;;;;;5129117;28;20611;-72
2024/01/14 00:16:34;;;;;;;46.10;21.97;;;-2.60;99.90;;;;;;5110773;28;20280;-72
2024/01/14 00:19:05;;;;;;;45.80;21.75;;;-2.60;99.90;;;;;;5129012;28;20197;-72
2024/01/14 00:21:31;;;;;;;52.22;22.40;;;-2.50;99.90;;;;;;5129026;28;20177;-72
2024/01/14 00:23:56;;;;;;;46.80;21.67;;;-2.60;99.90;;;;;;5129018;28;20220;-72
2024/01/14 00:26:24;;;;;;;47.07;20.40;;;-2.70;99.90;;;;;;5129156;28;20598;-72
2024/01/14 00:28:52;;;;;;;46.88;20.42;;;-2.70;99.90;;;;;;5128823;28;20197;-73
2024/01/14 00:35:32;;;;;;;43.22;20.80;;;-2.70;99.90;;;;;;5130548;28;20951;-72
2024/01/14 00:37:59;;;;;;;45.70;20.08;;;-2.60;99.90;;;;;;5129212;27;20248;-72
2024/01/14 00:40:25;;;;;;;52.15;22.05;;;-2.70;99.90;;;;;;5131319;27;20173;-72
2024/01/14 00:42:50;;;;;;;51.43;21.57;;;-2.60;99.90;;;;;;5114328;27;20215;-72
2024/01/14 00:45:16;;;;;;;50.67;22.93;;;-2.60;99.90;;;;;;5097526;27;20181;-72
2024/01/14 00:47:42;;;;;;;46.73;23.20;;;-2.60;99.90;;;;;;5132614;27;20231;-72
2024/01/14 00:50:08;;;;;;;50.90;22.83;;;-2.60;99.90;;;;;;5114279;27;20652;-73
2024/01/14 00:52:33;;;;;;;55.20;24.00;;;-2.60;99.90;;;;;;5132582;27;20185;-72
2024/01/14 00:54:59;;;;;;;45.67;21.37;;;-2.60;99.90;;;;;;5114170;27;20178;-72
2024/01/14 00:57:25;;;;;;;52.03;23.00;;;-2.60;99.90;;;;;;5113964;27;20293;-72
2024/01/14 00:59:51;;;;;;;42.25;20.67;;;-2.60;99.90;;;;;;5113913;27;20208;-72
2024/01/14 01:02:16;;;;;;;47.00;21.30;;;-2.60;99.90;;;;;;5132346;27;20217;-73
2024/01/14 01:04:42;;;;;;;45.17;20.20;;;-2.70;99.90;;;;;;5113968;27;20181;-72
2024/01/14 01:07:08;;;;;;;50.20;22.23;;;-2.90;99.90;;;;;;5131928;27;20184;-73
2024/01/14 01:09:33;;;;;;;42.80;21.17;;;-2.90;99.90;;;;;;5132202;27;20177;-72
2024/01/14 01:11:59;;;;;;;50.63;21.97;;;-2.90;99.90;;;;;;5132012;27;20598;-72
2024/01/14 01:14:24;;;;;;;48.10;21.40;;;-2.90;99.90;;;;;;5132219;27;20185;-72
2024/01/14 01:16:50;;;;;;;47.13;22.43;;;-2.80;99.90;;;;;;5096475;27;20559;-72
2024/01/14 01:19:15;;;;;;;43.43;20.80;;;-2.80;99.90;;;;;;5113547;27;20236;-73
2024/01/14 01:21:41;;;;;;;46.13;21.27;;;-2.80;99.90;;;;;;5113526;27;20760;-72
2024/01/14 01:24:08;;;;;;;47.73;21.30;;;-2.80;99.90;;;;;;5132070;27;20211;-72
2024/01/14 01:26:34;;;;;;;43.53;20.98;;;-2.80;99.90;;;;;;5113891;27;20264;-72
2024/01/14 01:29:00;;;;;;;52.17;22.90;;;-2.80;99.90;;;;;;5113828;27;20304;-72
2024/01/14 01:31:25;;;;;;;40.13;19.13;;;-2.80;99.90;;;;;;5131668;27;20584;-72
2024/01/14 01:33:51;;;;;;;47.53;21.50;;;-2.80;99.90;;;;;;5131933;27;20184;-72
2024/01/14 01:36:16;;;;;;;46.40;21.40;;;-2.80;99.90;;;;;;5112978;27;20200;-72
2024/01/14 01:38:42;;;;;;;44.30;21.37;;;-2.80;99.90;;;;;;5131490;27;20215;-72
2024/01/14 01:41:07;;;;;;;43.57;21.70;;;-2.90;99.90;;;;;;5113172;27;20209;-71
2024/01/14 01:43:33;;;;;;;44.80;20.60;;;-2.90;99.90;;;;;;5131285;27;20212;-72
2024/01/14 01:45:58;;;;;;;44.93;21.03;;;-3.00;99.90;;;;;;5112921;27;20550;-71
2024/01/14 01:48:24;;;;;;;40.70;18.53;;;-3.00;99.90;;;;;;5131250;27;20225;-71
2024/01/14 01:50:52;;;;;;;41.37;20.43;;;-3.10;99.90;;;;;;5131046;27;20177;-72
2024/01/14 01:53:18;;;;;;;42.90;18.77;;;-3.10;99.90;;;;;;5131435;27;20797;-72
2024/01/14 01:55:44;;;;;;;42.57;20.70;;;-3.20;99.90;;;;;;5112704;27;20184;-71
2024/01/14 01:58:10;;;;;;;42.63;20.80;;;-3.30;99.90;;;;;;5131208;27;20443;-72
2024/01/14 02:00:38;;;;;;;40.97;19.15;;;-3.50;99.90;;;;;;5131203;27;20181;-72
2024/01/14 02:03:04;;;;;;;45.35;19.75;;;-3.50;99.90;;;;;;5131207;27;20205;-72
2024/01/14 02:05:34;;;;;;;44.38;18.95;;;-3.50;99.90;;;;;;5113067;27;20185;-71
2024/01/14 02:07:59;;;;;;;41.20;19.23;;;-3.50;99.90;;;;;;5131425;27;20203;-72
2024/01/14 02:10:25;;;;;;;43.40;20.07;;;-3.60;99.90;;;;;;5131456;27;20174;-72
2024/01/14 02:12:51;;;;;;;40.30;21.10;;;-3.70;99.90;;;;;;5131580;27;20652;-72
2024/01/14 02:15:16;;;;;;;42.40;20.77;;;-3.80;99.90;;;;;;5131202;27;20181;-72
2024/01/14 02:17:42;;;;;;;44.37;20.37;;;-3.80;99.90;;;;;;5112455;27;20208;-72
2024/01/14 02:20:08;;;;;;;42.53;18.63;;;-3.90;99.90;;;;;;5095614;27;20610;-72
2024/01/14 02:22:39;;;;;;;38.25;19.48;;;-3.80;99.90;;;;;;5112034;27;20213;-72
2024/01/14 02:25:05;;;;;;;46.35;20.73;;;-3.80;99.90;;;;;;5130743;27;20181;-71
2024/01/14 02:27:32;;;;;;;39.47;18.98;;;-3.80;99.90;;;;;;5130591;27;20215;-72
2024/01/14 02:29:59;;;;;;;46.83;19.55;;;-3.80;99.90;;;;;;5112238;27;20181;-72
2024/01/14 02:32:25;;;;;;;38.70;17.95;;;-4.00;99.90;;;;;;5112163;27;20177;-72
2024/01/14 02:34:51;;;;;;;43.80;20.50;;;-4.00;99.90;;;;;;5130575;27;20713;-72
2024/01/14 02:37:17;;;;;;;42.58;18.70;;;-4.10;99.90;;;;;;5130312;27;20598;-72
2024/01/14 02:39:42;;;;;;;43.27;17.23;;;-4.10;99.90;;;;;;5094848;27;20284;-72
2024/01/14 02:42:08;;;;;;;48.43;19.20;;;-4.20;99.90;;;;;;5130623;27;20181;-72
2024/01/14 02:44:33;;;;;;;38.23;18.43;;;-4.30;99.90;;;;;;5130471;27;20606;-72
2024/01/14 02:46:59;;;;;;;47.40;20.23;;;-4.30;99.90;;;;;;5094483;27;20281;-71
2024/01/14 02:49:24;;;;;;;47.63;20.57;;;-4.30;99.90;;;;;;5130183;27;20181;-72
2024/01/14 02:51:50;;;;;;;48.43;20.53;;;-4.30;99.90;;;;;;5130324;27;20237;-72
2024/01/14 02:54:16;;;;;;;43.30;18.30;;;-4.30;99.90;;;;;;5130409;27;20944;-72
2024/01/14 02:56:41;;;;;;;39.83;19.27;;;-4.30;99.90;;;;;;5130581;27;20185;-72
2024/01/14 02:59:07;;;;;;;44.63;20.93;;;-4.30;99.90;;;;;;5112080;27;20231;-71
2024/01/14 03:01:32;;;;;;;44.67;20.73;;;-4.30;99.90;;;;;;5130333;27;20281;-72
2024/01/14 03:03:58;;;;;;;46.30;19.60;;;-4.30;99.90;;;;;;5111671;27;20220;-72
2024/01/14 03:06:23;;;;;;;47.37;19.20;;;-4.30;99.90;;;;;;5094866;27;20707;-72
2024/01/14 03:08:49;;;;;;;37.60;18.93;;;-4.30;99.90;;;;;;5094803;27;20204;-71
2024/01/14 03:11:23;;;;;;;43.87;19.90;;;-4.30;99.90;;;;;;5130284;27;20169;-72
2024/01/14 03:13:49;;;;;;;43.33;19.92;;;-4.20;99.90;;;;;;5130041;27;20204;-72
2024/01/14 03:16:15;;;;;;;45.13;20.63;;;-4.20;99.90;;;;;;5130082;27;20216;-73
2024/01/14 03:18:41;;;;;;;46.80;20.70;;;-4.10;99.90;;;;;;5111245;27;20220;-73
2024/01/14 03:21:08;;;;;;;47.03;20.50;;;-4.20;99.90;;;;;;5077151;27;20855;-73
2024/01/14 03:23:33;;;;;;;51.78;19.42;;;-4.20;99.90;;;;;;5094383;27;20217;-71
2024/01/14 03:25:59;;;;;;;44.97;20.67;;;-4.10;99.90;;;;;;5111303;27;20177;-72
2024/01/14 03:28:24;;;;;;;57.13;21.43;;;-4.00;99.90;;;;;;5094008;27;20219;-73
2024/01/14 03:30:50;;;;;;;51.93;22.03;;;-4.00;99.90;;;;;;5111097;27;20177;-72
2024/01/14 03:33:15;;;;;;;51.63;22.33;;;-4.00;99.90;;;;;;5110770;27;20241;-72
2024/01/14 03:35:41;;;;;;;40.13;20.70;;;-4.00;99.90;;;;;;5129482;27;20208;-72
2024/01/14 03:38:07;;;;;;;46.80;21.07;;;-4.00;99.90;;;;;;5093959;28;20261;-72
2024/01/14 03:40:33;;;;;;;43.25;18.85;;;-4.10;99.90;;;;;;5111240;27;20173;-72
2024/01/14 03:42:58;;;;;;;43.53;19.17;;;-4.30;99.90;;;;;;5129240;27;20699;-72
2024/01/14 03:45:25;;;;;;;49.67;20.80;;;-4.30;99.90;;;;;;5110677;28;20177;-72
2024/01/14 03:47:50;;;;;;;50.03;20.63;;;-4.20;99.90;;;;;;5111002;28;20188;-73
2024/01/14 03:50:16;;;;;;;42.40;19.83;;;-4.10;99.90;;;;;;5129123;28;20200;-72
2024/01/14 03:52:41;;;;;;;39.70;19.80;;;-4.20;99.90;;;;;;5093593;28;20184;-73
2024/01/14 03:55:07;;;;;;;43.70;20.00;;;-4.20;99.90;;;;;;5110615;28;20234;-72
2024/01/14 03:57:33;;;;;;;51.13;21.23;;;-4.20;99.90;;;;;;5110896;28;20676;-72
2024/01/14 03:59:58;;;;;;;50.77;22.07;;;-4.20;99.90;;;;;;5129245;28;20973;-72
2024/01/14 04:02:24;;;;;;;47.87;20.40;;;-4.10;99.90;;;;;;5110825;28;20180;-72
2024/01/14 04:04:52;;;;;;;52.93;22.00;;;-4.10;99.90;;;;;;5129266;28;20314;-72
2024/01/14 04:07:18;;;;;;;50.78;22.27;;;-4.10;99.90;;;;;;5110559;28;20205;-72
2024/01/14 04:09:43;;;;;;;42.87;20.80;;;-4.10;99.90;;;;;;5129316;28;20189;-72
2024/01/14 04:12:09;;;;;;;42.87;20.60;;;-4.10;99.90;;;;;;5129224;28;20306;-73
2024/01/14 04:14:34;;;;;;;53.43;23.40;;;-4.10;99.90;;;;;;5132022;27;20185;-72
2024/01/14 04:17:00;;;;;;;49.33;20.13;;;-4.10;99.90;;;;;;5097609;27;20723;-72
2024/01/14 04:19:25;;;;;;;48.80;20.90;;;-4.10;99.90;;;;;;5133148;27;20248;-73
2024/01/14 04:21:51;;;;;;;42.93;19.77;;;-4.10;99.90;;;;;;5114776;27;20187;-72
2024/01/14 04:24:16;;;;;;;43.40;20.13;;;-4.10;99.90;;;;;;5114682;27;20603;-72
2024/01/14 04:26:42;;;;;;;44.07;20.87;;;-4.00;99.90;;;;;;5114889;27;20181;-73
2024/01/14 04:29:07;;;;;;;45.43;21.17;;;-4.00;99.90;;;;;;5133493;27;20291;-72
2024/01/14 04:31:33;;;;;;;47.90;21.10;;;-4.00;99.90;;;;;;5114961;27;20192;-73
2024/01/14 04:34:01;;;;;;;51.57;20.50;;;-3.90;99.90;;;;;;5098052;27;20181;-73
2024/01/14 04:36:26;;;;;;;40.97;19.38;;;-3.90;99.90;;;;;;5098088;27;21003;-73
2024/01/14 04:38:52;;;;;;;43.00;20.10;;;-3.90;99.90;;;;;;5133453;27;20205;-73
2024/01/14 04:41:17;;;;;;;50.07;21.87;;;-3.90;99.90;;;;;;5114928;27;20217;-73
2024/01/14 04:43:43;;;;;;;47.50;21.70;;;-3.90;99.90;;;;;;5114769;27;20220;-73
2024/01/14 04:46:10;;;;;;;49.30;19.73;;;-4.00;99.90;;;;;;5079766;27;20181;-73
2024/01/14 04:48:36;;;;;;;50.22;20.73;;;-4.00;99.90;;;;;;5114051;27;20232;-73
2024/01/14 04:51:01;;;;;;;44.70;20.17;;;-4.00;99.90;;;;;;5132533;27;20177;-73
2024/01/14 04:53:27;;;;;;;54.20;21.50;;;-4.00;99.90;;;;;;5114201;27;20723;-73
2024/01/14 04:55:53;;;;;;;44.80;21.03;;;-4.00;99.90;;;;;;5132367;27;20200;-72
2024/01/14 04:58:19;;;;;;;42.38;19.52;;;-4.00;99.90;;;;;;5132293;27;20197;-73
2024/01/14 05:00:45;;;;;;;38.03;19.47;;;-4.10;99.90;;;;;;5132184;27;20192;-73
2024/01/14 05:03:10;;;;;;;38.53;19.50;;;-4.00;99.90;;;;;;5113649;27;20589;-73
2024/01/14 05:05:36;;;;;;;50.00;19.77;;;-3.90;99.90;;;;;;5132038;27;20584;-72
2024/01/14 05:08:01;;;;;;;38.87;18.30;;;-4.00;99.90;;;;;;5096568;27;20197;-73
2024/01/14 05:10:27;;;;;;;51.37;21.97;;;-4.10;99.90;;;;;;5132064;27;20187;-73
2024/01/14 05:12:52;;;;;;;45.60;20.33;;;-4.10;99.90;;;;;;5113596;27;20185;-73
2024/01/14 05:15:18;;;;;;;52.07;22.93;;;-4.10;99.90;;;;;;5131893;27;20624;-72
2024/01/14 05:17:44;;;;;;;46.97;19.70;;;-4.20;99.90;;;;;;5131750;27;20211;-71
2024/01/14 05:20:09;;;;;;;48.27;20.10;;;-4.10;99.90;;;;;;5132043;27;20731;-72
2024/01/14 05:22:35;;;;;;;47.73;20.03;;;-4.10;99.90;;;;;;5113100;27;20216;-72
2024/01/14 05:25:00;;;;;;;48.97;21.47;;;-4.10;99.90;;;;;;5130876;27;20551;-71
2024/01/14 05:27:26;;;;;;;41.43;20.20;;;-4.10;99.90;;;;;;5113309;27;20204;-71
2024/01/14 05:29:52;;;;;;;42.57;19.57;;;-4.20;99.90;;;;;;5113645;27;20196;-73
2024/01/14 05:32:17;;;;;;;39.57;20.57;;;-4.20;99.90;;;;;;5131774;27;20180;-71
2024/01/14 05:34:44;;;;;;;39.50;18.47;;;-4.20;99.90;;;;;;5113111;27;20177;-72
2024/01/14 05:37:10;;;;;;;44.17;21.10;;;-4.30;99.90;;;;;;5131393;27;20287;-72
2024/01/14 05:39:36;;;;;;;41.85;19.05;;;-4.30;99.90;;;;;;5112814;27;20172;-72
2024/01/14 05:42:02;;;;;;;46.53;19.07;;;-4.20;99.90;;;;;;5131688;27;20268;-72
2024/01/14 05:44:28;;;;;;;47.67;20.43;;;-4.10;99.90;;;;;;5131437;27;20908;-72
2024/01/14 05:46:54;;;;;;;48.23;20.87;;;-4.10;99.90;;;;;;5131494;27;20181;-72
2024/01/14 05:49:20;;;;;;;55.97;21.08;;;-4.10;99.90;;;;;;5131222;27;20188;-73
2024/01/14 05:51:46;;;;;;;50.88;20.13;;;-3.90;99.90;;;;;;5131395;27;20177;-72
2024/01/14 05:54:12;;;;;;;44.63;19.60;;;-3.90;99.90;;;;;;5131278;27;20185;-73
2024/01/14 05:56:37;;;;;;;40.67;18.53;;;-3.80;99.90;;;;;;5131154;27;20421;-73
2024/01/14 05:59:03;;;;;;;41.23;19.00;;;-3.70;99.90;;;;;;5112610;27;20443;-72
2024/01/14 06:01:29;;;;;;;44.53;21.30;;;-3.70;99.90;;;;;;5131195;27;20659;-73
2024/01/14 06:03:55;;;;;;;50.30;20.40;;;-3.70;99.90;;;;;;5130994;27;20684;-72
2024/01/14 06:06:21;;;;;;;49.53;23.45;;;-3.60;99.90;;;;;;5131127;27;20284;-73
2024/01/14 06:08:46;;;;;;;44.97;22.37;;;-3.60;99.90;;;;;;5112343;27;21062;-73
2024/01/14 06:11:13;;;;;;;48.47;21.73;;;-3.60;99.90;;;;;;5095303;27;20675;-72
2024/01/14 06:13:39;;;;;;;49.20;23.98;;;-3.50;99.90;;;;;;5112313;27;20220;-72
2024/01/14 06:16:05;;;;;;;49.53;23.50;;;-3.50;99.90;;;;;;5112466;27;20230;-72
2024/01/14 06:18:31;;;;;;;45.50;22.70;;;-3.50;99.90;;;;;;5130739;27;20197;-72
2024/01/14 06:20:59;;;;;;;45.70;21.47;;;-3.50;99.90;;;;;;5130744;27;20177;-72
2024/01/14 06:23:25;;;;;;;43.90;21.08;;;-3.50;99.90;;;;;;5130569;27;20197;-72
2024/01/14 06:25:51;;;;;;;55.47;21.25;;;-3.50;99.90;;;;;;5111941;27;20230;-73
2024/01/14 06:28:17;;;;;;;40.70;21.50;;;-3.50;99.90;;;;;;5111737;27;20627;-72
2024/01/14 06:30:43;;;;;;;42.43;20.83;;;-3.40;99.90;;;;;;5130429;27;20810;-72
2024/01/14 06:33:09;;;;;;;48.17;21.03;;;-3.40;99.90;;;;;;5130324;27;20535;-73
2024/01/14 06:35:35;;;;;;;44.92;19.67;;;-3.40;99.90;;;;;;5130567;27;20417;-73
2024/01/14 06:38:01;;;;;;;44.42;19.45;;;-3.40;99.90;;;;;;5094554;27;20335;-72
2024/01/14 06:40:26;;;;;;;50.80;19.60;;;-3.40;99.90;;;;;;5130633;27;20283;-73
2024/01/14 06:42:52;;;;;;;51.70;19.70;;;-3.40;99.90;;;;;;5130158;27;21020;-73
2024/01/14 06:45:18;;;;;;;49.17;20.70;;;-3.30;99.90;;;;;;5130298;27;20177;-73
2024/01/14 06:47:43;;;;;;;48.43;21.20;;;-3.30;99.90;;;;;;5111626;27;20520;-73
2024/01/14 06:50:10;;;;;;;46.23;21.03;;;-3.30;99.90;;;;;;5130209;27;20915;-73
2024/01/14 06:52:37;;;;;;;45.88;20.85;;;-3.30;99.90;;;;;;5112015;27;20628;-72
2024/01/14 06:55:04;;;;;;;48.10;21.27;;;-3.40;99.90;;;;;;5111901;27;20238;-73
2024/01/14 06:57:31;;;;;;;45.78;21.17;;;-3.40;99.90;;;;;;5129968;27;20189;-73
2024/01/14 07:00:00;;;;;;;51.60;21.33;;;-3.50;99.90;;;;;;5130026;27;20186;-73
2024/01/14 07:02:26;;;;;;;55.70;21.30;;;-3.50;99.90;;;;;;5111453;27;20172;-73
2024/01/14 07:04:52;;;;;;;51.47;21.27;;;-3.60;99.90;;;;;;5129987;27;20597;-73
2024/01/14 07:07:18;;;;;;;51.28;20.23;;;-3.30;99.90;;;;;;5111480;27;20288;-74
2024/01/14 07:16:32;;;;;;;48.13;20.02;;;-3.50;99.90;;;;;;5130377;27;20173;-74
2024/01/14 07:18:58;;;;;;;42.10;19.45;;;-3.50;99.90;;;;;;5094076;27;20676;-74
2024/01/14 07:21:24;;;;;;;50.50;22.08;;;-3.50;99.90;;;;;;5129655;27;20667;-73
2024/01/14 07:23:50;;;;;;;51.93;20.53;;;-3.50;99.90;;;;;;5094241;27;20208;-72
2024/01/14 07:26:17;;;;;;;50.27;20.47;;;-3.50;99.90;;;;;;5129644;27;20644;-73
2024/01/14 07:28:43;;;;;;;43.47;19.70;;;-3.40;99.90;;;;;;5129389;27;20250;-74
2024/01/14 07:31:10;;;;;;;55.15;22.20;;;-3.50;99.90;;;;;;5129365;27;20176;-73
2024/01/14 07:33:36;;;;;;;50.53;20.95;;;-3.50;99.90;;;;;;5129439;27;20179;-73
2024/01/14 07:36:01;;;;;;;44.43;20.33;;;-3.60;99.90;;;;;;5129410;27;20264;-73
2024/01/14 07:38:27;;;;;;;45.70;19.33;;;-3.70;99.90;;;;;;5129349;27;20270;-73
2024/01/14 07:40:52;;;;;;;46.03;19.07;;;-3.80;99.90;;;;;;5093764;28;20192;-73
2024/01/14 07:43:18;;;;;;;51.27;20.33;;;-3.90;99.90;;;;;;5129279;27;20201;-73
2024/01/14 07:45:44;;;;;;;50.30;20.33;;;-3.80;99.90;;;;;;5129596;28;20615;-73
2024/01/14 07:48:09;;;;;;;46.03;18.90;;;-3.80;99.90;;;;;;5095357;27;20201;-72
2024/01/14 07:50:35;;;;;;;50.67;19.03;;;-4.00;99.90;;;;;;5117599;27;20181;-73
2024/01/14 07:53:00;;;;;;;42.00;18.33;;;-4.00;99.90;;;;;;5117628;27;20262;-73
2024/01/14 07:55:26;;;;;;;41.57;18.50;;;-4.00;99.90;;;;;;5117805;27;20181;-73
2024/01/14 07:57:52;;;;;;;42.53;17.43;;;-4.10;99.90;;;;;;5136214;27;20683;-72
2024/01/14 08:00:17;;;;;;;34.10;15.50;;;-4.10;99.90;;;;;;5136181;27;20281;-73
2024/01/14 08:02:43;;;;;;;37.63;15.87;;;-4.00;99.90;;;;;;5117405;27;20777;-73
2024/01/14 08:05:09;;;;;;;43.20;17.80;;;-4.10;99.90;;;;;;5117309;27;20177;-73
2024/01/14 08:07:34;;;;;;;39.85;16.20;;;-4.10;99.90;;;;;;5136028;27;20220;-73
2024/01/14 08:10:01;;;;;;;39.17;17.83;;;-3.80;99.90;;;;;;5136043;27;20629;-72
2024/01/14 08:12:27;;;;;;;39.28;18.48;;;-3.60;99.90;;;;;;5135991;27;20267;-73
2024/01/14 08:14:52;;;;;;;46.40;18.77;;;-3.50;99.90;;;;;;5117284;27;20271;-73
2024/01/14 08:17:18;;;;;;;44.83;18.53;;;-3.20;99.90;;;;;;5135794;27;20617;-73
2024/01/14 08:19:44;;;;;;;39.57;16.90;;;-2.70;99.90;;;;;;5136036;27;20180;-72
2024/01/14 08:22:10;;;;;;;46.78;17.05;;;-2.40;99.90;;;;;;5117132;27;20181;-73
2024/01/14 08:24:35;;;;;;;44.70;20.47;;;-2.30;99.90;;;;;;5083164;27;20219;-73
2024/01/14 08:27:01;;;;;;;42.70;19.67;;;-1.70;99.90;;;;;;5100297;27;20601;-73
2024/01/14 08:29:26;;;;;;;38.37;17.93;;;-1.00;99.90;;;;;;5117326;27;20184;-72
2024/01/14 08:31:53;;;;;;;36.60;18.20;;;-0.40;99.90;;;;;;5083200;27;20341;-73
2024/01/14 08:34:18;;;;;;;44.10;21.67;;;0.00;99.90;;;;;;5136629;27;20611;-73
2024/01/14 08:36:44;;;;;;;38.03;18.40;;;0.80;99.90;;;;;;5117346;27;20207;-72
2024/01/14 08:39:09;;;;;;;39.67;19.27;;;1.70;99.90;;;;;;5117380;27;20625;-71
2024/01/14 08:41:35;;;;;;;46.23;20.63;;;1.60;99.90;;;;;;5135988;27;20606;-72
2024/01/14 08:44:06;;;;;;;43.40;20.33;;;2.70;99.90;;;;;;5117240;27;20260;-71
2024/01/14 08:46:35;;;;;;;42.95;20.65;;;3.30;99.90;;;;;;5118287;27;20685;-71
2024/01/14 08:49:01;;;;;;;41.00;20.48;;;3.00;99.90;;;;;;5117801;27;20284;-71
2024/01/14 08:51:27;;;;;;;43.13;20.80;;;3.00;99.90;;;;;;5136214;27;20700;-72
2024/01/14 08:54:01;;;;;;;44.43;21.93;;;2.70;99.90;;;;;;5135961;27;20294;-72
2024/01/14 08:56:28;;;;;;;45.27;23.97;;;3.40;99.90;;;;;;5135924;27;20960;-72
2024/01/14 08:58:54;;;;;;;49.93;23.73;;;4.20;99.50;;;;;;5117390;27;20434;-71
2024/01/14 09:01:20;;;;;;;50.85;25.05;;;4.50;97.90;;;;;;5112039;27;20989;-71
2024/01/14 09:03:46;;;;;;;44.67;22.73;;;5.00;96.10;;;;;;5131711;27;20223;-72
2024/01/14 09:06:12;;;;;;;50.37;25.07;;;5.80;95.20;;;;;;5113270;27;20426;-71
2024/01/14 09:08:37;;;;;;;46.97;24.87;;;6.30;94.00;;;;;;5131724;27;20281;-71
2024/01/14 09:11:03;;;;;;;46.43;22.80;;;7.00;91.90;;;;;;5131303;27;21196;-71
2024/01/14 09:13:28;;;;;;;42.60;23.37;;;6.80;88.00;;;;;;5131186;27;20200;-72
2024/01/14 09:15:54;;;;;;;47.77;26.13;;;6.10;86.90;;;;;;5078569;27;20602;-72
2024/01/14 09:18:20;;;;;;;46.77;25.13;;;5.60;88.10;;;;;;5130745;27;20209;-72
2024/01/14 09:20:45;;;;;;;47.23;24.00;;;4.70;90.60;;;;;;5131095;27;20264;-72
2024/01/14 09:23:11;;;;;;;45.60;23.87;;;4.10;91.80;;;;;;5112625;27;20255;-72
2024/01/14 09:25:36;;;;;;;44.53;24.97;;;3.20;94.00;;;;;;5131465;27;20176;-73
2024/01/14 09:28:02;;;;;;;42.10;22.50;;;2.80;95.10;;;;;;5112087;27;20287;-73
2024/01/14 09:30:28;;;;;;;40.20;21.37;;;2.50;96.00;;;;;;5112020;27;20198;-73
2024/01/14 09:32:53;;;;;;;40.73;21.03;;;1.90;97.70;;;;;;5130788;27;20433;-72
2024/01/14 09:35:19;;;;;;;36.90;19.20;;;1.50;99.90;;;;;;5095751;27;20327;-72
2024/01/14 09:37:44;;;;;;;36.10;18.50;;;0.90;99.90;;;;;;5111969;27;20219;-73
2024/01/14 09:40:10;;;;;;;42.20;19.10;;;1.00;99.90;;;;;;5130930;27;20219;-73
2024/01/14 09:42:39;;;;;;;38.60;19.17;;;1.30;99.90;;;;;;5112073;27;20740;-72
2024/01/14 09:45:08;;;;;;;35.13;18.55;;;1.60;99.90;;;;;;5111859;27;20416;-72
2024/01/14 09:47:35;;;;;;;41.95;21.10;;;2.00;99.90;;;;;;5130570;27;20231;-72
2024/01/14 09:50:01;;;;;;;33.40;18.57;;;3.10;99.90;;;;;;5130814;27;20255;-73
2024/01/14 09:52:29;;;;;;;40.23;21.53;;;4.60;96.00;;;;;;5130794;27;20932;-72
2024/01/14 09:54:55;;;;;;;36.70;19.87;;;5.50;93.00;;;;;;5131069;27;20418;-72
2024/01/14 09:57:20;;;;;;;36.77;19.63;;;6.70;91.50;;;;;;5130597;27;20443;-72
2024/01/14 09:59:50;;;;;;;38.30;20.20;;;7.40;87.80;;;;;;5129806;27;20229;-72
2024/01/14 10:02:15;;;;;;;36.93;21.50;;;8.10;86.80;;;;;;5129922;27;20653;-72
2024/01/14 10:04:42;;;;;;;36.90;20.30;;;8.70;83.70;;;;;;5111253;27;20558;-72
2024/01/14 10:07:08;;;;;;;39.60;21.00;;;9.10;81.00;;;;;;5129788;27;20205;-72
2024/01/14 10:09:35;;;;;;;32.90;19.60;;;9.20;76.60;;;;;;5129725;27;20456;-72
2024/01/14 10:12:01;;;;;;;34.57;21.27;;;10.10;75.00;;;;;;5129207;27;20463;-72
2024/01/14 10:14:27;;;;;;;32.57;19.60;;;11.30;73.80;;;;;;5129755;27;20408;-72
2024/01/14 10:16:57;;;;;;;33.50;20.60;;;12.00;69.10;;;;;;5129595;27;20445;-72
2024/01/14 10:19:23;;;;;;;32.13;21.33;;;12.00;64.20;;;;;;5111033;27;20845;-72
2024/01/14 10:21:52;;;;;;;39.80;23.63;;;12.50;63.90;;;;;;5129668;27;20465;-72
2024/01/14 10:24:17;;;;;;;40.20;22.17;;;12.70;61.90;;;;;;5111193;27;20473;-72
2024/01/14 10:26:43;;;;;;;37.23;23.07;;;13.40;62.10;;;;;;5111922;27;20418;-72
2024/01/14 10:29:08;;;;;;;33.37;20.70;;;13.90;58.80;;;;;;5094959;27;20292;-72
2024/01/14 10:31:34;;;;;;;34.17;20.73;;;14.10;57.50;;;;;;5111954;27;20472;-72
2024/01/14 10:34:03;;;;;;;35.70;22.37;;;13.80;55.60;;;;;;5111623;27;20208;-72
2024/01/14 10:36:31;;;;;;;30.30;20.07;;;13.90;55.30;;;;;;5129783;27;20281;-72
2024/01/14 10:38:59;;;;;;;29.00;19.10;;;14.00;55.00;;;;;;5129567;27;20441;-73
2024/01/14 10:41:25;;;;;;;31.23;21.00;;;13.60;53.00;;;;;;5111470;27;20857;-72
2024/01/14 10:43:54;;;;;;;30.03;19.73;;;13.30;53.30;;;;;;5129855;27;21016;-72
2024/01/14 10:46:21;;;;;;;33.93;20.83;;;13.90;54.10;;;;;;5129580;27;20414;-72
2024/01/14 10:48:52;;;;;;;31.83;20.60;;;14.20;53.00;;;;;;5094047;27;20498;-72
2024/01/14 10:51:21;;;;;;;32.20;20.13;;;14.80;52.90;;;;;;5110903;27;20846;-71
2024/01/14 10:54:27;;;;;;;32.60;19.60;;;15.20;53.00;;;;;;5129235;27;20911;-71
2024/01/14 10:57:16;;;;;;;37.80;22.80;;;14.70;51.40;;;;;;5129577;27;20407;-72
2024/01/14 10:59:44;;;;;;;36.70;20.20;;;14.80;51.90;;;;;;5110771;27;20423;-73
2024/01/14 11:02:17;;;;;;;29.20;18.90;;;14.40;51.60;;;;;;5110406;27;20412;-73
2024/01/14 11:04:44;;;;;;;34.30;20.50;;;14.40;51.50;;;;;;5128725;27;20461;-72
2024/01/14 11:07:10;;;;;;;41.43;26.07;;;14.40;51.60;;;;;;5109902;27;20418;-72
2024/01/14 11:09:37;;;;;;;38.70;22.70;;;14.50;51.80;;;;;;5109827;27;20426;-73
2024/01/14 11:12:10;;;;;;;36.63;21.93;;;14.60;51.60;;;;;;5128730;27;21003;-72
2024/01/14 11:14:59;;;;;;;42.20;24.23;;;14.80;51.40;;;;;;5129031;27;20419;-72
2024/01/14 11:17:49;;;;;;;43.60;25.90;;;14.70;51.50;;;;;;5130051;27;20439;-73
2024/01/14 11:20:18;;;;;;;38.87;24.20;;;14.20;50.90;;;;;;5130853;27;20403;-73
2024/01/14 11:22:44;;;;;;;44.70;24.93;;;14.00;51.70;;;;;;5127839;27;20419;-73
2024/01/14 11:25:22;;;;;;;42.30;24.97;;;13.50;51.60;;;;;;5128096;27;20491;-73
2024/01/14 11:27:48;;;;;;;39.07;23.50;;;13.10;52.30;;;;;;5109395;27;20978;-73
2024/01/14 11:30:18;;;;;;;51.23;24.90;;;12.80;51.90;;;;;;5128180;27;21059;-73
2024/01/14 11:32:43;;;;;;;45.00;24.37;;;12.70;52.50;;;;;;5127965;27;20406;-73
2024/01/14 11:35:10;;;;;;;38.83;22.30;;;12.20;51.90;;;;;;5128176;27;20478;-73
2024/01/14 11:37:36;;;;;;;38.20;22.43;;;11.90;52.80;;;;;;5127805;27;20206;-73
2024/01/14 11:40:10;;;;;;;42.10;23.33;;;11.80;53.00;;;;;;5109420;27;20410;-73
2024/01/14 11:42:36;;;;;;;39.70;23.23;;;11.50;53.70;;;;;;5127738;27;20733;-73
2024/01/14 11:45:03;;;;;;;41.17;22.07;;;11.60;53.80;;;;;;5109287;28;20459;-73
2024/01/14 11:47:45;;;;;;;45.13;24.33;;;11.50;53.70;;;;;;5127808;28;20442;-73
2024/01/14 11:50:14;;;;;;;37.77;21.57;;;11.60;54.40;;;;;;5109094;28;20447;-73
2024/01/14 11:52:48;;;;;;;40.30;22.20;;;11.50;54.10;;;;;;5109098;28;20429;-74
2024/01/14 11:55:17;;;;;;;40.57;23.10;;;11.40;53.80;;;;;;5127799;28;20408;-74
2024/01/14 11:57:44;;;;;;;42.57;22.63;;;10.90;54.80;;;;;;5127936;28;20441;-74
2024/01/14 12:00:11;;;;;;;38.63;21.37;;;10.10;54.40;;;;;;5109200;28;20515;-73
2024/01/14 12:02:38;;;;;;;43.70;23.97;;;9.90;56.90;;;;;;5108714;28;20965;-74
2024/01/14 12:05:24;;;;;;;41.93;21.03;;;9.50;56.90;;;;;;5127879;28;20418;-74
2024/01/14 12:07:53;;;;;;;38.33;20.00;;;8.60;57.60;;;;;;5127343;28;20457;-74
2024/01/14 12:10:19;;;;;;;39.10;21.90;;;8.40;59.30;;;;;;5108991;28;20451;-74
2024/01/14 12:12:44;;;;;;;35.90;20.40;;;8.20;59.70;;;;;;5127747;28;20487;-73
2024/01/14 12:15:11;;;;;;;46.93;23.50;;;7.90;60.30;;;;;;5108849;28;20516;-74
2024/01/14 12:17:36;;;;;;;41.87;23.97;;;7.40;61.50;;;;;;5127563;28;20211;-74
2024/01/14 12:20:04;;;;;;;46.03;23.10;;;7.20;61.80;;;;;;5109112;28;20418;-74
2024/01/14 12:22:30;;;;;;;44.83;22.63;;;6.70;64.10;;;;;;5127672;28;20183;-74
2024/01/14 12:24:56;;;;;;;56.03;21.30;;;6.30;66.70;;;;;;5127456;28;20619;-74
2024/01/14 12:27:22;;;;;;;45.40;22.33;;;6.00;67.60;;;;;;5108816;28;20904;-74
2024/01/14 12:29:48;;;;;;;40.50;20.23;;;5.70;69.70;;;;;;5127550;28;20181;-74
2024/01/14 12:32:13;;;;;;;39.63;22.20;;;5.40;73.70;;;;;;5127670;28;21036;-74
2024/01/14 12:34:41;;;;;;;33.20;18.50;;;5.20;77.20;;;;;;5129132;27;20267;-74
2024/01/14 12:37:07;;;;;;;37.43;20.23;;;4.90;78.80;;;;;;5131407;27;20633;-74